Time;durP1;ratioP1;P1;durP2;ratioP2;P2;SDS_P1;SDS_P2;PMS_P1;PMS_P2;Temp;Humidity;BMP_temperature;BMP_pressure;BME280_temperature;BME280_humidity;BME280_pressure;Samples;Min_cycle;Max_cycle;Signal;HPM_P1;HPM_P2
2021/05/28 00:02:26;;;;;;;2.57;2.40;;;11.60;99.90;;;;;;5005580;28;20213;-76
2021/05/28 00:04:53;;;;;;;2.57;2.37;;;11.60;99.90;;;;;;5005269;28;20663;-75
2021/05/28 00:07:19;;;;;;;3.20;2.70;;;11.50;99.90;;;;;;5005282;28;20233;-76
2021/05/28 00:09:45;;;;;;;3.73;2.57;;;11.50;99.90;;;;;;5005371;28;20278;-76
2021/05/28 00:12:12;;;;;;;3.53;2.80;;;11.60;99.90;;;;;;5005128;28;20259;-76
2021/05/28 00:14:38;;;;;;;3.77;3.00;;;11.50;99.90;;;;;;5005096;28;20220;-76
2021/05/28 00:17:04;;;;;;;3.37;2.87;;;11.50;99.90;;;;;;5005151;28;20241;-76
2021/05/28 00:19:30;;;;;;;2.77;2.57;;;11.60;99.90;;;;;;5005242;28;20214;-76
2021/05/28 00:21:57;;;;;;;2.77;2.47;;;11.50;99.90;;;;;;5005241;28;20208;-76
2021/05/28 00:24:24;;;;;;;3.00;2.80;;;11.50;99.90;;;;;;5004943;28;20253;-76
2021/05/28 00:26:50;;;;;;;3.17;2.90;;;11.50;99.90;;;;;;5005114;28;20225;-76
2021/05/28 00:29:16;;;;;;;3.47;3.17;;;11.50;99.90;;;;;;5004997;28;20209;-76
2021/05/28 00:31:42;;;;;;;3.30;3.10;;;11.50;99.90;;;;;;5004897;28;20220;-76
2021/05/28 00:34:08;;;;;;;3.40;3.10;;;11.50;99.90;;;;;;5006403;28;20205;-76
2021/05/28 00:36:34;;;;;;;3.30;3.10;;;11.50;99.90;;;;;;5008359;28;20217;-76
2021/05/28 00:39:02;;;;;;;4.40;3.10;;;11.40;99.90;;;;;;5008718;28;20225;-76
2021/05/28 00:41:28;;;;;;;3.17;2.97;;;11.40;99.90;;;;;;5008527;28;20263;-76
2021/05/28 00:43:54;;;;;;;3.70;3.40;;;11.40;99.90;;;;;;5009247;28;20268;-76
2021/05/28 00:46:23;;;;;;;3.27;3.07;;;11.40;99.90;;;;;;5008442;28;20299;-76
2021/05/28 00:48:52;;;;;;;3.40;3.20;;;11.50;99.90;;;;;;5008551;28;20205;-78
2021/05/28 00:51:18;;;;;;;3.40;3.20;;;11.50;99.90;;;;;;5008715;28;20214;-76
2021/05/28 00:53:45;;;;;;;3.80;3.20;;;11.50;99.90;;;;;;5008057;28;20245;-77
2021/05/28 00:56:14;;;;;;;3.17;3.00;;;11.60;99.90;;;;;;5008538;28;20262;-77
2021/05/28 00:58:40;;;;;;;3.70;3.40;;;11.50;99.90;;;;;;5008444;28;20563;-77
2021/05/28 01:01:06;;;;;;;3.60;3.40;;;11.40;99.90;;;;;;5008047;28;20206;-77
2021/05/28 01:03:32;;;;;;;5.63;3.43;;;11.40;99.90;;;;;;5008216;28;20279;-77
2021/05/28 01:05:59;;;;;;;4.17;3.77;;;11.50;99.90;;;;;;5008413;28;20210;-77
2021/05/28 01:08:25;;;;;;;3.73;3.43;;;11.50;99.90;;;;;;5007833;28;20699;-76
2021/05/28 01:10:51;;;;;;;3.40;3.00;;;11.40;99.90;;;;;;5007912;28;20217;-77
2021/05/28 01:13:18;;;;;;;4.13;3.83;;;11.50;99.90;;;;;;5008269;28;20213;-77
2021/05/28 01:15:44;;;;;;;4.17;3.77;;;11.50;99.90;;;;;;5007403;28;20622;-77
2021/05/28 01:18:11;;;;;;;3.70;3.40;;;11.50;99.90;;;;;;5008060;28;20744;-77
2021/05/28 01:20:37;;;;;;;3.93;3.33;;;11.50;99.90;;;;;;5007837;28;20202;-76
2021/05/28 01:23:05;;;;;;;3.90;3.70;;;11.50;99.90;;;;;;5007985;28;20282;-76
2021/05/28 01:25:32;;;;;;;3.63;3.33;;;11.60;99.90;;;;;;5007747;28;20544;-76
2021/05/28 01:27:59;;;;;;;5.13;3.47;;;11.50;99.90;;;;;;5007722;28;20956;-77
2021/05/28 01:30:26;;;;;;;5.77;3.60;;;11.50;99.90;;;;;;5007862;28;20206;-77
2021/05/28 01:32:53;;;;;;;4.73;3.33;;;11.60;99.90;;;;;;5007947;28;20292;-76
2021/05/28 01:35:20;;;;;;;2.90;2.80;;;11.70;99.90;;;;;;5007856;28;20468;-76
2021/05/28 01:37:47;;;;;;;3.80;3.30;;;11.60;99.90;;;;;;5007761;28;20205;-76
2021/05/28 01:40:15;;;;;;;3.33;3.07;;;11.70;99.90;;;;;;5007831;28;20255;-76
2021/05/28 01:42:42;;;;;;;3.60;3.03;;;11.60;99.90;;;;;;5007083;28;20230;-76
2021/05/28 01:45:10;;;;;;;3.67;3.27;;;11.60;99.90;;;;;;5007321;28;20213;-77
2021/05/28 01:47:37;;;;;;;3.70;3.40;;;11.60;99.90;;;;;;5007515;28;20238;-77
2021/05/28 01:50:05;;;;;;;2.83;2.70;;;11.50;99.90;;;;;;5007926;28;20277;-77
2021/05/28 01:52:31;;;;;;;4.13;3.20;;;11.50;99.90;;;;;;5007343;28;20202;-77
2021/05/28 01:54:57;;;;;;;3.20;2.90;;;11.50;99.90;;;;;;5007528;28;20266;-78
2021/05/28 01:57:24;;;;;;;3.20;2.90;;;11.40;99.90;;;;;;5007391;28;20209;-77
2021/05/28 01:59:50;;;;;;;3.20;3.07;;;11.40;99.90;;;;;;5007405;28;20216;-77
2021/05/28 02:02:16;;;;;;;3.07;2.87;;;11.40;99.90;;;;;;5006967;28;20548;-78
2021/05/28 02:04:43;;;;;;;5.20;3.23;;;11.40;99.90;;;;;;5007452;28;20216;-76
2021/05/28 02:07:10;;;;;;;3.33;3.13;;;11.40;99.90;;;;;;5007377;28;20589;-76
2021/05/28 02:09:36;;;;;;;2.93;2.73;;;11.40;99.90;;;;;;5007280;28;20361;-76
2021/05/28 02:12:02;;;;;;;3.17;2.97;;;11.40;99.90;;;;;;5007463;28;20214;-76
2021/05/28 02:14:30;;;;;;;2.83;2.63;;;11.40;99.90;;;;;;5007083;28;20217;-77
2021/05/28 02:16:57;;;;;;;2.93;2.73;;;11.50;99.90;;;;;;5007301;28;20237;-77
2021/05/28 02:19:24;;;;;;;2.87;2.63;;;11.40;99.90;;;;;;5007596;28;20220;-77
2021/05/28 02:21:51;;;;;;;2.97;2.77;;;11.30;99.90;;;;;;5006997;28;20664;-77
2021/05/28 02:24:18;;;;;;;2.33;2.23;;;11.30;99.90;;;;;;5006927;28;20210;-78
2021/05/28 02:26:46;;;;;;;3.13;2.40;;;11.20;99.90;;;;;;5007249;28;20226;-76
2021/05/28 02:29:12;;;;;;;2.50;2.40;;;11.20;99.90;;;;;;5007308;28;20225;-77
2021/05/28 02:31:40;;;;;;;2.73;2.53;;;11.20;99.90;;;;;;5006461;28;20276;-77
2021/05/28 02:34:06;;;;;;;2.17;1.97;;;11.20;99.90;;;;;;5006994;28;20235;-77
2021/05/28 02:36:33;;;;;;;2.03;1.93;;;11.30;99.90;;;;;;5007035;28;20209;-77
2021/05/28 02:38:59;;;;;;;2.37;1.93;;;11.30;99.90;;;;;;5006940;28;20286;-76
2021/05/28 02:41:26;;;;;;;2.33;2.00;;;11.10;99.90;;;;;;5006495;28;20230;-76
2021/05/28 02:43:52;;;;;;;2.30;2.00;;;11.10;99.90;;;;;;5006631;28;20583;-76
2021/05/28 02:46:18;;;;;;;3.77;1.60;;;11.00;99.90;;;;;;5006604;28;20209;-78
2021/05/28 02:48:46;;;;;;;1.83;1.67;;;10.90;99.90;;;;;;5006773;28;20284;-77
2021/05/28 02:51:12;;;;;;;2.27;1.80;;;10.80;99.90;;;;;;5006654;28;20714;-78
2021/05/28 02:53:38;;;;;;;1.47;1.43;;;10.90;99.90;;;;;;5006996;28;20214;-77
2021/05/28 02:56:05;;;;;;;1.33;1.33;;;10.80;99.90;;;;;;5006079;28;20594;-77
2021/05/28 02:58:31;;;;;;;1.63;1.40;;;10.80;99.90;;;;;;5006220;28;20205;-78
2021/05/28 03:00:58;;;;;;;2.67;1.50;;;10.80;99.90;;;;;;5006520;28;20660;-78
2021/05/28 03:03:24;;;;;;;2.67;1.67;;;10.70;99.90;;;;;;5006588;28;20232;-78
2021/05/28 03:05:51;;;;;;;1.93;1.77;;;10.80;99.90;;;;;;5006114;28;20205;-75
2021/05/28 03:08:18;;;;;;;1.87;1.77;;;10.60;99.90;;;;;;5006087;28;20228;-76
2021/05/28 03:10:44;;;;;;;2.10;1.90;;;10.60;99.90;;;;;;5003290;28;20202;-76
2021/05/28 03:13:10;;;;;;;2.00;1.90;;;10.60;99.90;;;;;;5004640;28;20198;-76
2021/05/28 03:15:37;;;;;;;1.90;1.80;;;10.60;99.90;;;;;;5003704;28;20206;-76
2021/05/28 03:18:04;;;;;;;2.10;1.60;;;10.60;99.90;;;;;;5004069;28;20726;-76
2021/05/28 03:20:35;;;;;;;1.90;1.80;;;10.50;99.90;;;;;;5004085;28;20614;-77
2021/05/28 03:23:04;;;;;;;2.27;2.00;;;10.50;99.90;;;;;;5004506;28;20208;-76
2021/05/28 03:25:30;;;;;;;2.50;1.80;;;10.60;99.90;;;;;;5004747;28;20209;-76
2021/05/28 03:27:56;;;;;;;2.00;1.90;;;10.60;99.90;;;;;;5003893;28;20272;-77
2021/05/28 03:30:22;;;;;;;2.90;2.63;;;10.50;99.90;;;;;;4993167;28;20206;-80
2021/05/28 03:32:49;;;;;;;2.77;2.50;;;10.60;99.90;;;;;;5005386;28;20217;-75
2021/05/28 03:35:15;;;;;;;2.60;2.10;;;10.70;99.90;;;;;;4993401;28;20218;-77
2021/05/28 03:37:42;;;;;;;1.80;1.70;;;10.70;99.90;;;;;;4984956;28;20255;-76
2021/05/28 03:40:11;;;;;;;4.07;1.90;;;10.60;99.90;;;;;;5001645;28;20205;-77
2021/05/28 03:42:38;;;;;;;2.17;1.93;;;10.60;99.90;;;;;;5004103;28;20229;-77
2021/05/28 03:45:05;;;;;;;2.00;1.90;;;10.70;99.90;;;;;;5003949;28;20675;-77
2021/05/28 03:47:31;;;;;;;2.17;2.07;;;10.60;99.90;;;;;;5003900;28;20606;-76
2021/05/28 03:49:57;;;;;;;2.87;2.00;;;10.60;99.90;;;;;;5004011;28;20218;-77
2021/05/28 03:52:23;;;;;;;2.10;2.00;;;10.60;99.90;;;;;;5003908;28;20270;-77
2021/05/28 03:54:50;;;;;;;3.27;2.30;;;10.70;99.90;;;;;;5003855;28;20205;-77
2021/05/28 03:57:17;;;;;;;1.90;1.80;;;10.70;99.90;;;;;;5004091;28;20268;-77
2021/05/28 03:59:43;;;;;;;2.60;2.10;;;10.80;99.90;;;;;;5003287;28;20212;-76
2021/05/28 04:02:09;;;;;;;2.37;2.17;;;10.80;99.90;;;;;;5000353;28;20951;-76
2021/05/28 04:04:35;;;;;;;5.20;2.40;;;10.70;99.90;;;;;;5004176;28;20205;-76
2021/05/28 04:07:02;;;;;;;2.40;2.30;;;10.70;99.90;;;;;;5004967;28;20228;-76
2021/05/28 04:09:28;;;;;;;2.90;2.40;;;10.70;99.90;;;;;;5004884;28;20679;-76
2021/05/28 04:11:54;;;;;;;2.93;2.73;;;10.70;99.90;;;;;;5004597;28;20216;-76
2021/05/28 04:14:21;;;;;;;2.63;2.43;;;10.70;99.90;;;;;;5004734;28;20720;-76
2021/05/28 04:16:47;;;;;;;3.60;2.70;;;10.70;99.90;;;;;;5004554;28;21022;-76
2021/05/28 04:19:13;;;;;;;2.83;2.60;;;10.80;99.90;;;;;;5004946;28;20782;-76
2021/05/28 04:21:40;;;;;;;2.73;2.53;;;10.70;99.90;;;;;;4999473;28;20209;-76
2021/05/28 04:24:07;;;;;;;3.27;2.90;;;10.70;99.90;;;;;;5004527;28;20202;-76
2021/05/28 04:26:33;;;;;;;3.20;2.90;;;10.60;99.90;;;;;;5004074;28;20624;-76
2021/05/28 04:29:00;;;;;;;3.40;3.10;;;10.70;99.90;;;;;;5002192;28;20934;-76
2021/05/28 04:31:27;;;;;;;4.07;2.70;;;10.60;99.90;;;;;;5004302;28;20672;-76
2021/05/28 04:33:54;;;;;;;4.70;3.00;;;10.80;99.90;;;;;;5004823;28;20213;-76
2021/05/28 04:36:21;;;;;;;2.87;2.77;;;10.80;99.90;;;;;;4999135;28;20737;-77
2021/05/28 04:38:47;;;;;;;3.23;2.70;;;10.80;99.90;;;;;;5004439;28;20220;-76
2021/05/28 04:41:13;;;;;;;4.07;2.47;;;10.80;99.90;;;;;;5004481;28;20221;-76
2021/05/28 04:43:39;;;;;;;2.83;2.60;;;10.80;99.90;;;;;;5004110;28;20238;-75
2021/05/28 04:46:05;;;;;;;3.53;3.23;;;10.90;99.90;;;;;;5004511;28;20977;-76
2021/05/28 04:48:32;;;;;;;2.80;2.70;;;10.90;99.90;;;;;;5004593;28;20217;-76
2021/05/28 04:50:58;;;;;;;3.00;2.80;;;11.00;99.90;;;;;;5004118;28;20198;-77
2021/05/28 04:53:24;;;;;;;3.30;3.10;;;11.00;99.90;;;;;;5004553;28;20197;-77
2021/05/28 04:55:51;;;;;;;3.27;2.90;;;11.10;99.90;;;;;;5004574;28;20217;-77
2021/05/28 04:58:17;;;;;;;3.83;3.03;;;11.00;99.90;;;;;;5004403;28;20306;-77
2021/05/28 05:00:44;;;;;;;3.10;2.90;;;11.00;99.90;;;;;;5004080;28;20601;-76
2021/05/28 05:03:10;;;;;;;3.97;3.10;;;11.10;99.90;;;;;;5004227;28;20209;-76
2021/05/28 05:05:37;;;;;;;3.33;3.00;;;10.90;99.90;;;;;;5004030;28;20250;-76
2021/05/28 05:08:04;;;;;;;4.00;2.87;;;10.80;99.90;;;;;;5003915;28;20226;-76
2021/05/28 05:10:30;;;;;;;2.90;2.70;;;11.00;99.90;;;;;;5004322;28;20239;-76
2021/05/28 05:12:56;;;;;;;3.27;2.93;;;11.00;99.90;;;;;;5004381;28;20312;-76
2021/05/28 05:15:22;;;;;;;2.77;2.63;;;11.00;99.90;;;;;;5005227;28;20263;-76
2021/05/28 05:17:48;;;;;;;3.17;2.97;;;11.00;99.90;;;;;;5004743;28;20230;-76
2021/05/28 05:20:14;;;;;;;3.10;2.90;;;11.20;99.90;;;;;;5006297;28;20209;-74
2021/05/28 05:22:42;;;;;;;3.37;3.17;;;11.10;99.90;;;;;;5008551;28;20217;-75
2021/05/28 05:25:09;;;;;;;3.07;2.87;;;11.10;99.90;;;;;;5008532;28;20284;-76
2021/05/28 05:27:35;;;;;;;3.90;3.00;;;11.20;99.90;;;;;;5007015;28;20772;-75
2021/05/28 05:30:02;;;;;;;3.03;2.83;;;11.20;99.90;;;;;;5007115;28;20221;-76
2021/05/28 05:32:28;;;;;;;3.13;2.83;;;11.10;99.90;;;;;;5002419;28;20216;-77
2021/05/28 05:34:57;;;;;;;3.80;3.40;;;11.10;99.90;;;;;;5003477;28;20678;-76
2021/05/28 05:37:23;;;;;;;3.57;3.27;;;11.00;99.90;;;;;;5007540;28;20329;-76
2021/05/28 05:39:50;;;;;;;3.57;3.27;;;11.10;99.90;;;;;;5007207;28;20209;-76
2021/05/28 05:42:16;;;;;;;3.90;3.53;;;11.10;99.90;;;;;;5007199;28;20278;-76
2021/05/28 05:44:43;;;;;;;3.43;3.17;;;11.10;99.90;;;;;;5007217;28;20295;-75
2021/05/28 05:47:09;;;;;;;3.60;3.30;;;11.10;99.90;;;;;;5005643;28;20233;-76
2021/05/28 05:49:36;;;;;;;3.67;3.43;;;11.10;99.90;;;;;;5007082;28;20202;-75
2021/05/28 05:52:03;;;;;;;3.90;3.43;;;11.10;99.90;;;;;;5006985;28;20205;-75
2021/05/28 05:54:29;;;;;;;4.30;3.63;;;11.10;99.90;;;;;;5006378;28;20205;-75
2021/05/28 05:56:56;;;;;;;5.07;4.63;;;11.20;99.90;;;;;;5006470;28;20202;-76
2021/05/28 05:59:23;;;;;;;4.40;4.07;;;11.20;99.90;;;;;;5007194;28;20206;-76
2021/05/28 06:01:50;;;;;;;4.70;4.40;;;11.30;99.90;;;;;;5006987;28;20289;-76
2021/05/28 06:04:16;;;;;;;4.60;4.20;;;11.50;99.90;;;;;;5004853;28;20680;-75
2021/05/28 06:06:42;;;;;;;5.03;3.70;;;11.50;99.90;;;;;;5006345;28;20566;-75
2021/05/28 06:09:08;;;;;;;3.70;3.40;;;11.60;99.90;;;;;;5006704;28;20213;-76
2021/05/28 06:11:34;;;;;;;2.90;2.73;;;11.70;99.90;;;;;;5006552;28;20205;-76
2021/05/28 06:14:01;;;;;;;4.30;3.40;;;11.80;99.90;;;;;;5006812;28;20227;-75
2021/05/28 06:16:28;;;;;;;3.37;3.07;;;11.80;99.90;;;;;;5006023;28;20648;-76
2021/05/28 06:18:54;;;;;;;4.27;3.30;;;11.90;99.90;;;;;;5006846;28;20214;-75
2021/05/28 06:21:20;;;;;;;3.83;3.20;;;11.90;99.90;;;;;;5006687;28;20208;-76
2021/05/28 06:23:46;;;;;;;5.23;3.30;;;11.90;99.90;;;;;;5006316;28;20234;-81
2021/05/28 06:26:12;;;;;;;4.20;3.90;;;12.00;99.90;;;;;;5006354;28;20232;-77
2021/05/28 06:28:38;;;;;;;3.43;3.13;;;11.90;99.90;;;;;;5005712;28;20244;-76
2021/05/28 06:31:05;;;;;;;3.47;3.07;;;11.90;99.90;;;;;;5000813;28;20433;-76
2021/05/28 06:33:32;;;;;;;3.30;3.00;;;11.80;99.90;;;;;;5003225;28;20217;-76
2021/05/28 06:35:58;;;;;;;4.33;3.30;;;11.80;99.90;;;;;;5006591;28;20511;-76
2021/05/28 06:38:24;;;;;;;6.37;3.00;;;11.80;99.90;;;;;;5006661;28;20213;-76
2021/05/28 06:40:50;;;;;;;2.90;2.70;;;11.70;99.90;;;;;;5007082;28;20226;-76
2021/05/28 06:43:16;;;;;;;3.30;3.10;;;11.70;99.90;;;;;;5006777;28;20233;-78
2021/05/28 06:45:43;;;;;;;3.20;2.90;;;11.80;99.90;;;;;;5007001;28;20209;-78
2021/05/28 06:48:10;;;;;;;3.13;2.93;;;11.80;99.90;;;;;;5004682;28;20728;-77
2021/05/28 06:50:40;;;;;;;5.43;3.20;;;11.90;99.90;;;;;;4990027;28;20558;-78
2021/05/28 06:53:06;;;;;;;3.40;3.10;;;11.90;99.90;;;;;;5003208;28;20271;-76
2021/05/28 06:55:33;;;;;;;5.07;2.93;;;11.90;99.90;;;;;;4998207;28;20209;-79
2021/05/28 06:58:02;;;;;;;6.13;4.77;;;11.90;99.90;;;;;;5007539;28;20202;-85
2021/05/28 07:00:28;;;;;;;6.13;3.77;;;12.00;99.90;;;;;;5006774;28;20345;-76
2021/05/28 07:02:55;;;;;;;5.93;3.37;;;12.20;99.90;;;;;;5007393;28;20212;-76
2021/05/28 07:05:24;;;;;;;3.57;3.30;;;12.30;99.90;;;;;;5007005;28;20228;-76
2021/05/28 07:07:50;;;;;;;3.40;3.07;;;12.40;99.90;;;;;;5006995;28;20221;-76
2021/05/28 07:10:16;;;;;;;4.20;3.23;;;12.50;99.90;;;;;;5002987;28;20279;-76
2021/05/28 07:12:42;;;;;;;3.37;3.17;;;12.40;99.90;;;;;;4998376;28;20211;-75
2021/05/28 07:15:10;;;;;;;3.37;3.17;;;12.40;99.90;;;;;;5004134;28;20274;-75
2021/05/28 07:17:36;;;;;;;3.10;2.80;;;12.50;99.90;;;;;;4986638;28;20234;-75
2021/05/28 07:20:04;;;;;;;3.27;2.70;;;12.60;99.90;;;;;;4998420;28;20214;-75
2021/05/28 07:22:31;;;;;;;3.83;3.40;;;12.70;99.90;;;;;;5006045;28;20201;-76
2021/05/28 07:24:58;;;;;;;3.73;3.10;;;12.60;99.90;;;;;;4999112;28;20242;-76
2021/05/28 07:27:24;;;;;;;3.93;3.37;;;12.60;99.90;;;;;;4986242;28;20337;-76
2021/05/28 07:29:50;;;;;;;6.03;5.50;;;12.60;99.90;;;;;;4987090;28;20749;-76
2021/05/28 07:32:17;;;;;;;3.93;3.57;;;12.60;99.90;;;;;;4987394;28;20206;-77
2021/05/28 07:34:43;;;;;;;3.17;2.87;;;12.70;99.90;;;;;;4986958;28;20213;-77
2021/05/28 07:37:09;;;;;;;5.50;4.10;;;12.80;99.90;;;;;;4987441;28;20210;-77
2021/05/28 07:39:36;;;;;;;3.43;3.23;;;12.70;99.90;;;;;;4987255;28;20218;-77
2021/05/28 07:42:03;;;;;;;3.57;3.23;;;12.50;99.90;;;;;;4987199;28;20233;-77
2021/05/28 07:44:29;;;;;;;5.20;3.07;;;12.50;99.90;;;;;;4986271;28;20256;-77
2021/05/28 07:46:56;;;;;;;3.13;2.93;;;12.60;99.90;;;;;;4987015;28;20209;-77
2021/05/28 07:49:22;;;;;;;3.13;2.93;;;12.60;99.90;;;;;;4986851;28;20202;-77
2021/05/28 07:51:49;;;;;;;3.17;2.93;;;12.70;99.90;;;;;;4986922;28;20206;-76
2021/05/28 07:54:16;;;;;;;2.60;2.40;;;12.90;99.90;;;;;;4987211;28;20263;-76
2021/05/28 07:56:44;;;;;;;2.93;2.60;;;13.00;99.90;;;;;;4987537;28;20242;-78
2021/05/28 07:59:11;;;;;;;2.67;2.57;;;13.00;99.90;;;;;;4986705;28;20213;-77
2021/05/28 08:01:37;;;;;;;3.80;2.60;;;12.90;99.90;;;;;;4986996;28;20203;-78
2021/05/28 08:04:04;;;;;;;3.30;2.93;;;12.90;99.90;;;;;;4986885;28;20267;-78
2021/05/28 08:06:30;;;;;;;3.03;2.70;;;13.00;99.90;;;;;;4986814;28;20211;-78
2021/05/28 08:08:57;;;;;;;6.03;2.90;;;13.10;99.90;;;;;;4986345;28;20238;-78
2021/05/28 08:11:23;;;;;;;3.97;2.80;;;13.20;99.90;;;;;;4986363;28;20704;-78
2021/05/28 08:13:50;;;;;;;2.90;2.70;;;13.30;99.90;;;;;;4986395;28;20214;-78
2021/05/28 08:16:17;;;;;;;4.13;3.83;;;13.40;99.90;;;;;;4986583;28;20317;-78
2021/05/28 08:18:43;;;;;;;2.83;2.67;;;13.60;99.90;;;;;;4986316;28;20217;-78
2021/05/28 08:21:11;;;;;;;3.80;3.17;;;13.70;99.90;;;;;;4986458;28;20260;-78
2021/05/28 08:23:38;;;;;;;3.10;2.90;;;13.60;99.90;;;;;;4985956;28;20663;-78
2021/05/28 08:26:05;;;;;;;2.93;2.73;;;13.70;99.90;;;;;;4986312;28;20221;-78
2021/05/28 08:28:34;;;;;;;3.40;3.10;;;13.80;99.90;;;;;;4986468;28;20234;-78
2021/05/28 08:31:01;;;;;;;2.90;2.70;;;13.80;99.90;;;;;;4986492;28;20214;-77
2021/05/28 08:33:27;;;;;;;3.53;2.57;;;13.90;99.90;;;;;;4986509;28;20271;-78
2021/05/28 08:35:53;;;;;;;2.80;2.60;;;13.90;99.90;;;;;;4985907;28;20579;-78
2021/05/28 08:38:19;;;;;;;3.37;2.90;;;14.00;99.90;;;;;;4986290;28;20214;-77
2021/05/28 08:40:46;;;;;;;3.83;2.87;;;14.10;99.90;;;;;;4985816;28;20249;-78
2021/05/28 08:43:13;;;;;;;2.03;1.87;;;14.10;99.90;;;;;;4986124;28;20253;-77
2021/05/28 08:45:41;;;;;;;2.53;2.33;;;14.00;99.90;;;;;;4986384;28;20195;-78
2021/05/28 08:48:11;;;;;;;2.20;2.10;;;14.00;99.90;;;;;;4986014;28;20320;-78
2021/05/28 08:50:38;;;;;;;2.43;2.17;;;14.00;99.90;;;;;;4986391;28;20202;-78
2021/05/28 08:53:06;;;;;;;2.80;2.60;;;13.90;99.90;;;;;;4985897;28;20210;-78
2021/05/28 08:55:33;;;;;;;2.83;2.63;;;13.80;99.90;;;;;;4987480;28;20214;-78
2021/05/28 08:57:59;;;;;;;6.57;3.07;;;13.60;99.90;;;;;;4989357;28;20214;-78
2021/05/28 09:00:28;;;;;;;10.10;4.93;;;13.50;99.90;;;;;;4989311;28;20214;-78
2021/05/28 09:02:54;;;;;;;3.40;3.10;;;13.40;99.90;;;;;;4989572;28;20678;-78
2021/05/28 09:05:25;;;;;;;4.63;4.33;;;13.20;99.90;;;;;;4989473;28;20202;-78
2021/05/28 09:07:56;;;;;;;3.93;2.93;;;13.10;99.90;;;;;;4989004;28;20241;-78
2021/05/28 09:10:28;;;;;;;2.83;2.53;;;12.90;99.90;;;;;;4989486;28;20209;-78
2021/05/28 09:12:55;;;;;;;2.70;2.50;;;12.90;99.90;;;;;;4989248;28;20584;-78
2021/05/28 09:15:22;;;;;;;3.37;2.93;;;12.90;99.90;;;;;;4989636;28;20214;-78
2021/05/28 09:17:49;;;;;;;2.77;2.57;;;13.00;99.90;;;;;;4988797;28;20210;-78
2021/05/28 09:20:15;;;;;;;2.40;2.20;;;13.10;99.90;;;;;;4989140;28;20211;-78
2021/05/28 09:22:42;;;;;;;2.13;2.00;;;13.20;99.90;;;;;;4988945;28;20217;-77
2021/05/28 09:25:09;;;;;;;2.13;2.03;;;13.30;99.90;;;;;;4988864;28;20288;-78
2021/05/28 09:27:37;;;;;;;2.10;2.00;;;13.30;99.90;;;;;;4989460;28;20302;-78
2021/05/28 09:30:09;;;;;;;3.30;3.00;;;13.40;99.90;;;;;;4989061;28;20326;-78
2021/05/28 09:32:38;;;;;;;2.53;2.30;;;13.50;99.90;;;;;;4988809;28;20207;-78
2021/05/28 09:35:08;;;;;;;4.50;2.23;;;13.70;99.90;;;;;;4988991;28;20422;-78
2021/05/28 09:37:36;;;;;;;2.33;2.17;;;13.80;99.90;;;;;;4989607;28;20602;-78
2021/05/28 09:40:14;;;;;;;2.73;1.77;;;13.90;99.90;;;;;;4988713;28;20702;-78
2021/05/28 09:42:47;;;;;;;2.80;2.10;;;13.90;99.90;;;;;;4988615;28;20264;-77
2021/05/28 09:45:30;;;;;;;2.37;2.10;;;13.90;99.90;;;;;;4988627;28;20202;-78
2021/05/28 09:47:58;;;;;;;4.87;2.03;;;14.10;99.90;;;;;;4988731;28;20232;-77
2021/05/28 09:50:24;;;;;;;1.77;1.67;;;14.30;99.90;;;;;;4988730;28;20220;-78
2021/05/28 09:52:51;;;;;;;2.30;1.80;;;14.50;99.90;;;;;;4988469;28;20669;-78
2021/05/28 09:55:18;;;;;;;1.90;1.80;;;14.50;99.90;;;;;;4988701;28;20210;-77
2021/05/28 09:57:46;;;;;;;2.10;1.90;;;14.70;99.90;;;;;;4988402;28;20249;-77
2021/05/28 10:00:23;;;;;;;1.60;1.50;;;14.80;99.90;;;;;;4988643;28;20210;-77
2021/05/28 10:02:49;;;;;;;1.93;1.60;;;15.00;99.90;;;;;;4988326;28;20194;-77
2021/05/28 10:05:25;;;;;;;1.23;1.23;;;15.10;99.90;;;;;;4988511;28;20202;-78
2021/05/28 10:07:51;;;;;;;2.83;1.30;;;15.00;99.90;;;;;;4988014;28;20240;-78
2021/05/28 10:10:19;;;;;;;1.07;1.07;;;14.90;99.90;;;;;;4987831;28;20623;-78
2021/05/28 10:12:48;;;;;;;1.83;1.30;;;14.70;99.90;;;;;;4988296;28;20271;-77
2021/05/28 10:15:15;;;;;;;1.50;1.40;;;14.80;99.90;;;;;;4988341;28;20412;-78
2021/05/28 10:17:41;;;;;;;1.73;1.30;;;14.80;99.90;;;;;;4988380;28;20265;-78
2021/05/28 10:20:08;;;;;;;1.23;1.13;;;14.90;99.90;;;;;;4988280;28;20259;-77
2021/05/28 10:22:35;;;;;;;1.10;1.10;;;14.90;99.90;;;;;;4988123;28;20972;-77
2021/05/28 10:25:04;;;;;;;1.20;1.20;;;14.90;99.90;;;;;;4987860;28;20207;-78
2021/05/28 10:27:32;;;;;;;1.20;1.10;;;15.00;99.90;;;;;;4988364;28;20230;-78
2021/05/28 10:29:58;;;;;;;1.20;1.20;;;15.10;99.90;;;;;;4988067;28;20210;-78
2021/05/28 10:32:25;;;;;;;1.17;1.17;;;15.20;99.90;;;;;;4988005;28;20214;-78
2021/05/28 10:35:14;;;;;;;1.20;1.10;;;15.30;99.90;;;;;;4987949;28;20226;-78
2021/05/28 10:37:42;;;;;;;1.50;1.23;;;15.40;99.90;;;;;;4987866;28;20672;-78
2021/05/28 10:40:29;;;;;;;1.20;1.20;;;15.50;99.90;;;;;;4987783;28;20210;-77
2021/05/28 10:43:02;;;;;;;1.43;1.33;;;15.60;99.90;;;;;;4990262;28;20206;-77
2021/05/28 10:45:57;;;;;;;2.00;1.27;;;15.70;99.90;;;;;;4987594;28;20683;-78
2021/05/28 10:49:07;;;;;;;1.20;1.10;;;15.70;99.90;;;;;;4987964;28;20234;-77
2021/05/28 10:52:02;;;;;;;2.73;1.30;;;15.60;99.90;;;;;;4987235;28;20301;-78
2021/05/28 10:54:32;;;;;;;1.70;1.60;;;15.40;99.90;;;;;;4987864;28;20201;-78
2021/05/28 10:57:24;;;;;;;2.20;1.30;;;15.20;99.90;;;;;;4987101;28;20696;-78
2021/05/28 10:59:53;;;;;;;1.73;1.20;;;15.20;99.90;;;;;;4987750;28;20244;-77
2021/05/28 11:02:44;;;;;;;2.63;1.23;;;15.30;99.90;;;;;;4987615;28;20225;-77
2021/05/28 11:05:11;;;;;;;2.00;1.50;;;15.40;99.90;;;;;;4991603;28;20214;-77
2021/05/28 11:07:43;;;;;;;2.13;1.93;;;15.50;99.90;;;;;;4987619;28;20291;-77
2021/05/28 11:10:23;;;;;;;2.07;1.87;;;15.70;99.90;;;;;;4987856;28;20191;-78
2021/05/28 11:12:50;;;;;;;3.10;1.97;;;15.90;99.90;;;;;;4987412;28;20201;-77
2021/05/28 11:15:23;;;;;;;1.80;1.70;;;15.90;99.90;;;;;;4987406;28;20210;-77
2021/05/28 11:17:58;;;;;;;3.07;1.87;;;16.00;99.90;;;;;;4986627;28;20203;-77
2021/05/28 11:20:27;;;;;;;4.23;1.90;;;16.10;99.90;;;;;;4987427;28;20591;-78
2021/05/28 11:22:54;;;;;;;3.10;1.40;;;16.40;99.90;;;;;;4987291;28;20206;-77
2021/05/28 11:25:22;;;;;;;1.87;1.40;;;16.60;99.90;;;;;;4987129;28;20218;-77
2021/05/28 11:27:58;;;;;;;1.33;1.30;;;16.80;99.90;;;;;;4986914;28;20239;-78
2021/05/28 11:30:43;;;;;;;4.93;1.10;;;17.10;99.90;;;;;;4987357;28;20202;-77
2021/05/28 11:33:09;;;;;;;1.40;1.30;;;17.30;99.90;;;;;;4987574;28;20615;-77
2021/05/28 11:35:41;;;;;;;1.00;1.00;;;17.50;99.90;;;;;;4987400;28;20206;-78
2021/05/28 11:38:08;;;;;;;1.47;1.37;;;17.60;99.90;;;;;;4986499;28;20559;-78
2021/05/28 11:40:40;;;;;;;1.77;1.67;;;17.80;99.90;;;;;;4986705;28;20234;-77
2021/05/28 11:43:08;;;;;;;2.07;1.27;;;17.90;99.90;;;;;;4986971;28;20234;-77
2021/05/28 11:45:35;;;;;;;4.93;1.50;;;18.00;99.90;;;;;;4986953;28;20244;-77
2021/05/28 11:48:02;;;;;;;2.67;1.30;;;18.20;99.90;;;;;;4986740;28;20712;-77
2021/05/28 11:50:39;;;;;;;2.30;1.90;;;18.30;99.90;;;;;;4987154;28;20206;-77
2021/05/28 11:53:07;;;;;;;1.60;1.50;;;18.40;99.90;;;;;;4987144;28;20201;-78
2021/05/28 11:55:43;;;;;;;1.53;1.40;;;18.40;99.90;;;;;;4986925;28;20249;-77
2021/05/28 11:58:09;;;;;;;1.43;1.33;;;18.50;99.90;;;;;;4986888;28;20205;-77
2021/05/28 12:00:35;;;;;;;2.20;1.37;;;18.70;99.90;;;;;;4986618;28;20677;-77
2021/05/28 12:03:02;;;;;;;1.87;1.67;;;18.70;99.90;;;;;;4987015;28;20213;-76
2021/05/28 12:05:31;;;;;;;1.03;1.03;;;18.80;99.90;;;;;;4986258;28;20690;-76
2021/05/28 12:07:59;;;;;;;1.93;1.70;;;18.60;99.90;;;;;;4986414;28;20235;-76
2021/05/28 12:10:27;;;;;;;1.40;1.30;;;18.30;99.90;;;;;;4986673;28;20213;-77
2021/05/28 12:12:56;;;;;;;3.33;2.80;;;18.10;99.90;;;;;;4986815;28;20264;-76
2021/05/28 12:15:24;;;;;;;4.77;3.33;;;17.80;99.90;;;;;;4986605;28;20208;-76
2021/05/28 12:17:51;;;;;;;2.07;1.80;;;17.50;99.90;;;;;;4986422;28;20206;-76
2021/05/28 12:20:24;;;;;;;2.27;2.07;;;17.20;99.90;;;;;;4986667;28;20249;-76
2021/05/28 12:23:04;;;;;;;1.70;1.60;;;17.10;99.90;;;;;;4986307;28;20552;-77
2021/05/28 12:25:32;;;;;;;1.67;1.60;;;17.10;99.90;;;;;;4986346;28;20198;-76
2021/05/28 12:28:13;;;;;;;2.27;1.50;;;17.30;99.90;;;;;;4986117;28;20245;-77
2021/05/28 12:30:41;;;;;;;1.63;1.53;;;17.80;99.90;;;;;;4985398;28;20198;-76
2021/05/28 12:33:07;;;;;;;1.33;1.30;;;18.30;99.90;;;;;;4986204;28;20622;-76
2021/05/28 12:35:35;;;;;;;3.80;1.50;;;18.60;99.90;;;;;;4986635;28;20467;-77
2021/05/28 12:38:07;;;;;;;2.03;1.20;;;18.90;99.90;;;;;;4986439;28;20220;-76
2021/05/28 12:40:34;;;;;;;1.97;1.17;;;18.90;99.90;;;;;;4986308;28;20630;-76
2021/05/28 12:43:01;;;;;;;1.10;1.10;;;18.80;99.90;;;;;;4985989;28;20242;-76
2021/05/28 12:45:38;;;;;;;1.00;1.00;;;18.60;99.90;;;;;;4986268;28;20206;-76
2021/05/28 12:48:05;;;;;;;2.63;1.10;;;18.30;99.90;;;;;;4986071;28;20239;-77
2021/05/28 12:50:34;;;;;;;1.30;1.30;;;18.00;99.90;;;;;;4985975;28;20739;-76
2021/05/28 12:53:02;;;;;;;2.30;1.50;;;17.70;99.90;;;;;;4985718;28;20206;-77